Time;durP1;ratioP1;P1;durP2;ratioP2;P2;SDS_P1;SDS_P2;PMS_P1;PMS_P2;Temp;Humidity;BMP_temperature;BMP_pressure;BME280_temperature;BME280_humidity;BME280_pressure;Samples;Min_cycle;Max_cycle;Signal;HPM_P1;HPM_P2
2022/01/15 00:01:29;;;;;;;;;85.25;71.00;;;;;7.51;100.00;102745.50;5036732;28;45961;-75
2022/01/15 00:03:55;;;;;;;;;82.75;68.75;;;;;7.49;100.00;102737.63;5031124;28;45302;-75
2022/01/15 00:06:21;;;;;;;;;79.50;65.50;;;;;7.50;100.00;102741.13;5016867;28;45316;-75
2022/01/15 00:08:46;;;;;;;;;89.25;69.25;;;;;7.48;100.00;102735.81;5017198;28;45557;-76
2022/01/15 00:11:12;;;;;;;;;87.25;68.25;;;;;7.47;100.00;102735.72;5016723;28;45446;-75
2022/01/15 00:13:40;;;;;;;;;94.75;78.00;;;;;7.46;100.00;102733.88;5017155;28;45914;-75
2022/01/15 00:16:28;;;;;;;;;87.25;76.25;;;;;7.41;100.00;102728.34;5017196;28;45385;-76
2022/01/15 00:19:39;;;;;;;;;92.25;73.50;;;;;7.38;100.00;102726.41;5012241;28;45241;-75
2022/01/15 00:21:45;;;;;;;;;82.25;67.00;;;;;7.33;100.00;102725.06;5032516;28;46429;-75
2022/01/15 00:24:11;;;;;;;;;91.75;72.00;;;;;7.33;100.00;102727.66;5034150;28;45676;-75
2022/01/15 00:26:37;;;;;;;;;90.75;77.00;;;;;7.32;100.00;102727.53;5036237;28;45470;-76
2022/01/15 00:29:03;;;;;;;;;88.75;75.75;;;;;7.31;100.00;102734.31;5022431;28;45443;-75
2022/01/15 00:31:30;;;;;;;;;92.00;85.75;;;;;7.28;100.00;102723.78;4997780;28;46497;-75
2022/01/15 00:33:55;;;;;;;;;108.75;92.25;;;;;7.24;100.00;102725.16;5009223;28;45803;-75
2022/01/15 00:36:21;;;;;;;;;116.50;97.50;;;;;7.19;100.00;102721.28;5034047;28;45510;-75
2022/01/15 00:38:48;;;;;;;;;117.25;107.25;;;;;7.13;100.00;102718.13;5035381;28;45481;-75
2022/01/15 00:41:16;;;;;;;;;113.50;101.75;;;;;7.08;100.00;102715.13;5028169;28;46346;-75
2022/01/15 00:43:41;;;;;;;;;115.25;96.50;;;;;7.05;100.00;102714.88;4998672;28;45534;-74
2022/01/15 00:46:07;;;;;;;;;129.00;111.00;;;;;7.01;100.00;102711.91;5032443;28;45272;-75
2022/01/15 00:48:33;;;;;;;;;128.25;111.25;;;;;6.99;100.00;102710.84;5016736;28;45229;-76
2022/01/15 00:50:59;;;;;;;;;127.25;112.50;;;;;6.94;100.00;102708.75;5025811;28;45352;-75
2022/01/15 00:53:24;;;;;;;;;120.25;104.75;;;;;6.90;100.00;102710.91;5022415;28;45250;-75
2022/01/15 00:55:50;;;;;;;;;130.00;115.00;;;;;6.88;100.00;102709.88;5015161;28;45317;-75
2022/01/15 00:58:16;;;;;;;;;117.00;106.00;;;;;6.79;100.00;102705.69;5036238;28;45502;-76
2022/01/15 01:00:45;;;;;;;;;57.50;41.50;;;;;6.73;100.00;102704.22;5036303;28;46011;-76
2022/01/15 01:03:11;;;;;;;;;132.00;116.25;;;;;6.69;100.00;102700.47;5036109;28;45524;-76
2022/01/15 01:05:37;;;;;;;;;122.25;106.25;;;;;6.65;100.00;102699.31;5018730;28;45433;-76
2022/01/15 01:08:03;;;;;;;;;119.75;111.25;;;;;6.61;100.00;102693.75;5018452;28;45299;-76
2022/01/15 01:10:48;;;;;;;;;117.00;103.00;;;;;6.57;100.00;102683.91;5015798;28;46198;-76
2022/01/15 01:23:37;;;;;;;;;106.50;90.75;;;;;6.45;100.00;102676.00;5016356;28;45473;-76
2022/01/15 01:26:12;;;;;;;;;103.75;93.25;;;;;6.42;100.00;102671.47;5030987;28;45505;-76
2022/01/15 01:28:43;;;;;;;;;115.50;96.50;;;;;6.40;100.00;102656.63;5016125;28;45517;-75
2022/01/15 01:31:23;;;;;;;;;92.50;77.25;;;;;6.40;100.00;102660.13;5022609;28;46424;-75
2022/01/15 01:33:53;;;;;;;;;110.00;98.50;;;;;6.39;100.00;102667.69;5035624;28;45780;-75
2022/01/15 01:39:10;;;;;;;;;97.50;82.75;;;;;6.31;100.00;102677.31;5035765;28;45549;-76
2022/01/15 01:41:35;;;;;;;;;108.50;92.75;;;;;6.28;100.00;102679.59;5035147;28;46016;-76
2022/01/15 01:44:03;;;;;;;;;99.50;91.50;;;;;6.27;100.00;102673.50;5038773;28;45320;-77
2022/01/15 01:46:43;;;;;;;;;103.00;90.25;;;;;6.30;100.00;102678.06;5038706;28;45363;-76
2022/01/15 01:49:12;;;;;;;;;102.75;88.50;;;;;6.31;100.00;102672.16;5028148;28;45299;-76
2022/01/15 01:51:41;;;;;;;;;100.00;90.50;;;;;6.31;100.00;102669.59;5039104;28;46512;-77
2022/01/15 01:54:09;;;;;;;;;94.25;84.75;;;;;6.29;100.00;102666.84;5039327;28;45400;-76
2022/01/15 01:56:36;;;;;;;;;98.00;89.50;;;;;6.27;100.00;102670.94;5039052;28;45265;-76
2022/01/15 01:59:03;;;;;;;;;104.50;91.75;;;;;6.24;100.00;102657.81;5039059;28;45609;-77
2022/01/15 02:01:29;;;;;;;;;105.00;91.25;;;;;6.18;100.00;102647.88;5037585;28;45285;-76
2022/01/15 02:03:55;;;;;;;;;111.75;96.00;;;;;6.16;100.00;102649.41;5038604;28;45281;-76
2022/01/15 02:06:21;;;;;;;;;98.25;88.75;;;;;6.16;100.00;102649.41;5038451;28;45500;-76
2022/01/15 02:08:48;;;;;;;;;110.00;91.00;;;;;6.12;100.00;102643.81;5039194;28;45432;-76
2022/01/15 02:11:15;;;;;;;;;93.00;81.25;;;;;6.13;100.00;102641.38;5038158;28;45497;-76
2022/01/15 02:13:45;;;;;;;;;99.75;86.75;;;;;6.12;100.00;102638.69;5038787;28;45742;-76
2022/01/15 02:16:12;;;;;;;;;100.00;84.50;;;;;6.11;100.00;102647.16;5038369;28;45229;-75
2022/01/15 02:18:38;;;;;;;;;95.75;88.25;;;;;6.11;100.00;102639.44;5038280;28;45538;-75
2022/01/15 02:23:36;;;;;;;;;93.50;82.75;;;;;6.03;100.00;102638.72;5038955;28;45592;-75
2022/01/15 02:26:07;;;;;;;;;93.75;85.25;;;;;6.01;100.00;102643.75;5038340;28;45375;-75
2022/01/15 02:28:36;;;;;;;;;92.25;78.00;;;;;6.00;100.00;102641.00;5004400;28;45320;-75
2022/01/15 02:31:06;;;;;;;;;96.50;81.25;;;;;5.97;100.00;102633.88;5037601;28;45450;-75
2022/01/15 02:33:32;;;;;;;;;99.00;87.75;;;;;5.95;100.00;102626.81;5037956;28;45900;-75
2022/01/15 02:35:59;;;;;;;;;96.00;85.75;;;;;5.96;100.00;102628.63;5033259;28;45395;-75
2022/01/15 02:38:25;;;;;;;;;95.75;86.25;;;;;5.96;100.00;102623.47;5017282;28;45563;-75
2022/01/15 02:40:52;;;;;;;;;90.50;75.25;;;;;5.96;100.00;102626.94;5029491;28;46388;-75
2022/01/15 02:43:29;;;;;;;;;98.50;85.25;;;;;5.95;100.00;102624.22;5038159;28;45480;-75
2022/01/15 02:45:56;;;;;;;;;94.00;78.00;;;;;5.91;100.00;102622.13;5038300;28;45404;-75
2022/01/15 02:48:24;;;;;;;;;95.00;85.75;;;;;5.90;100.00;102618.66;5038138;28;45518;-75
2022/01/15 02:50:51;;;;;;;;;95.75;79.25;;;;;5.94;100.00;102627.56;5038103;28;45241;-75
2022/01/15 02:53:17;;;;;;;;;101.50;91.50;;;;;5.93;100.00;102615.47;5005009;28;45590;-75
2022/01/15 02:55:49;;;;;;;;;96.50;86.50;;;;;5.93;100.00;102608.66;5000474;28;45331;-75
2022/01/15 02:58:17;;;;;;;;;97.50;87.50;;;;;5.93;100.00;102615.47;5018282;28;45205;-75
2022/01/15 03:00:43;;;;;;;;;102.00;84.50;;;;;5.94;100.00;102597.59;5017978;28;46208;-76
2022/01/15 03:03:09;;;;;;;;;95.75;83.75;;;;;5.95;100.00;102604.56;5017748;28;45783;-76
2022/01/15 03:05:35;;;;;;;;;101.25;90.25;;;;;5.96;100.00;102597.75;5018582;28;45367;-75
2022/01/15 03:08:01;;;;;;;;;93.75;79.50;;;;;5.96;100.00;102600.34;5018189;28;45361;-76
2022/01/15 03:10:27;;;;;;;;;91.75;77.25;;;;;5.95;100.00;102596.84;5017641;28;46105;-76
2022/01/15 03:12:54;;;;;;;;;94.75;84.75;;;;;5.98;100.00;102597.13;5018065;28;45318;-75
2022/01/15 03:15:20;;;;;;;;;105.25;84.00;;;;;5.99;100.00;102596.41;4999904;28;45255;-76
2022/01/15 03:17:47;;;;;;;;;99.75;87.25;;;;;6.00;100.00;102599.88;5018072;28;45337;-76
2022/01/15 03:20:14;;;;;;;;;96.25;88.50;;;;;6.00;100.00;102597.28;4999948;28;45852;-76
2022/01/15 03:22:40;;;;;;;;;92.50;78.75;;;;;5.98;100.00;102596.25;5017518;28;45597;-76
2022/01/15 03:25:07;;;;;;;;;89.25;72.75;;;;;5.98;100.00;102596.25;5018320;28;45473;-75
2022/01/15 03:27:33;;;;;;;;;97.75;85.50;;;;;5.98;100.00;102592.00;5018255;28;45669;-76
2022/01/15 03:29:58;;;;;;;;;101.00;86.50;;;;;6.01;100.00;102589.75;5032637;28;45646;-76
2022/01/15 03:32:24;;;;;;;;;98.75;87.00;;;;;6.04;100.00;102579.75;5037082;28;45241;-76
2022/01/15 03:34:50;;;;;;;;;94.25;81.25;;;;;6.07;100.00;102576.53;5037511;28;45358;-76
2022/01/15 03:37:16;;;;;;;;;97.50;82.75;;;;;6.08;100.00;102575.78;5037534;28;45237;-76
2022/01/15 03:39:42;;;;;;;;;91.50;80.25;;;;;6.08;100.00;102577.44;5037388;28;46706;-76
2022/01/15 03:42:12;;;;;;;;;94.50;78.25;;;;;6.06;100.00;102571.25;5036880;28;45726;-75
2022/01/15 03:44:48;;;;;;;;;89.75;79.50;;;;;6.04;100.00;102566.91;5037249;28;45500;-75
2022/01/15 03:47:16;;;;;;;;;91.25;76.00;;;;;6.04;100.00;102561.75;5037261;28;45247;-75
2022/01/15 03:49:42;;;;;;;;;89.75;72.75;;;;;6.02;100.00;102562.34;5035923;28;46120;-75
2022/01/15 03:52:09;;;;;;;;;90.00;77.75;;;;;6.00;100.00;102563.88;5036739;28;45351;-75
2022/01/15 03:54:35;;;;;;;;;88.00;68.50;;;;;5.98;100.00;102557.69;5037656;28;45481;-76
2022/01/15 03:57:02;;;;;;;;;88.25;74.25;;;;;5.98;100.00;102558.56;5037392;28;45569;-76
2022/01/15 03:59:29;;;;;;;;;91.25;75.50;;;;;6.01;100.00;102552.81;5018819;28;46302;-75
2022/01/15 04:01:54;;;;;;;;;91.25;75.50;;;;;6.05;100.00;102547.22;5036498;28;45628;-76
2022/01/15 04:04:20;;;;;;;;;94.50;79.00;;;;;6.04;100.00;102538.59;5019478;28;45430;-76
2022/01/15 04:06:46;;;;;;;;;88.75;74.00;;;;;6.09;100.00;102531.31;5020794;28;45492;-75
2022/01/15 04:09:12;;;;;;;;;90.25;74.50;;;;;6.11;100.00;102534.91;5036618;28;45472;-75
2022/01/15 04:11:39;;;;;;;;;94.75;80.75;;;;;6.10;100.00;102533.09;5036872;28;45379;-75
2022/01/15 04:14:06;;;;;;;;;90.00;68.50;;;;;6.07;100.00;102532.84;5037107;28;45317;-75
2022/01/15 04:16:32;;;;;;;;;87.75;71.75;;;;;6.08;100.00;102528.59;5036689;28;45490;-75
2022/01/15 04:18:58;;;;;;;;;87.75;74.50;;;;;6.07;100.00;102530.25;5033132;28;45723;-75
2022/01/15 04:21:25;;;;;;;;;89.50;75.50;;;;;6.05;100.00;102521.50;5016617;28;45640;-75
2022/01/15 04:23:51;;;;;;;;;83.75;67.00;;;;;6.03;100.00;102529.09;5016947;28;45233;-75
2022/01/15 04:26:22;;;;;;;;;91.00;80.25;;;;;6.03;100.00;102525.59;5017002;28;45361;-75
2022/01/15 04:28:47;;;;;;;;;92.00;79.00;;;;;5.99;100.00;102521.84;5016660;28;45484;-75
2022/01/15 04:31:13;;;;;;;;;91.75;75.50;;;;;6.00;100.00;102522.72;4998285;28;45759;-75
2022/01/15 04:33:39;;;;;;;;;88.75;74.25;;;;;5.98;100.00;102513.97;4999082;28;45374;-75
2022/01/15 04:36:06;;;;;;;;;91.50;79.00;;;;;5.97;100.00;102512.16;5017309;28;45482;-75
2022/01/15 04:38:35;;;;;;;;;94.00;78.50;;;;;6.00;100.00;102515.03;5016315;28;46187;-76
2022/01/15 04:41:01;;;;;;;;;95.25;77.00;;;;;5.99;100.00;102510.63;5016484;28;45391;-76
2022/01/15 04:43:27;;;;;;;;;94.25;80.00;;;;;5.99;100.00;102515.78;5016468;28;45320;-75
2022/01/15 04:45:53;;;;;;;;;89.25;77.25;;;;;5.98;100.00;102509.72;5016903;28;45344;-76
2022/01/15 04:48:18;;;;;;;;;95.25;84.25;;;;;5.99;100.00;102514.13;5016332;28;45931;-75
2022/01/15 04:50:45;;;;;;;;;96.25;79.75;;;;;6.00;100.00;102507.31;5016491;28;45248;-76
2022/01/15 04:53:10;;;;;;;;;91.25;78.25;;;;;5.98;100.00;102504.56;5016422;28;45281;-76
2022/01/15 04:55:37;;;;;;;;;93.00;79.25;;;;;5.97;100.00;102509.59;5021314;28;45587;-75
2022/01/15 04:58:04;;;;;;;;;104.75;89.25;;;;;5.97;100.00;102509.59;5036349;28;46507;-76
2022/01/15 05:00:29;;;;;;;;;95.50;80.50;;;;;5.97;100.00;102509.59;5035770;28;45421;-76
2022/01/15 05:02:57;;;;;;;;;94.75;79.75;;;;;5.95;100.00;102511.13;5036329;28;45415;-75
2022/01/15 05:05:23;;;;;;;;;92.00;83.75;;;;;5.93;100.00;102510.97;5036272;28;45422;-76
2022/01/15 05:07:51;;;;;;;;;92.25;80.00;;;;;5.92;100.00;102503.09;5035916;28;45302;-75
2022/01/15 05:10:19;;;;;;;;;96.50;84.25;;;;;5.88;100.00;102505.38;5035782;28;45422;-76
2022/01/15 05:12:47;;;;;;;;;94.25;81.75;;;;;5.86;100.00;102504.38;5036750;28;45370;-76
2022/01/15 05:15:15;;;;;;;;;91.25;77.25;;;;;5.84;100.00;102508.47;5035847;28;45661;-76
2022/01/15 05:17:41;;;;;;;;;90.50;74.75;;;;;5.83;100.00;102498.06;5035488;28;46536;-76
2022/01/15 05:20:09;;;;;;;;;90.75;72.50;;;;;5.81;100.00;102505.59;5036317;28;45401;-76
2022/01/15 05:22:35;;;;;;;;;95.50;78.75;;;;;5.78;100.00;102495.03;5036243;28;45529;-76
2022/01/15 05:25:03;;;;;;;;;88.75;68.00;;;;;5.77;100.00;102495.81;5018130;28;45324;-76
2022/01/15 05:27:28;;;;;;;;;90.50;71.75;;;;;5.76;100.00;102498.25;5035390;28;46202;-76
2022/01/15 05:29:54;;;;;;;;;93.50;80.75;;;;;5.72;100.00;102497.94;5035748;28;45387;-76
2022/01/15 05:32:23;;;;;;;;;94.00;75.00;;;;;5.67;100.00;102501.78;5035607;28;45242;-76
2022/01/15 05:34:50;;;;;;;;;92.50;80.25;;;;;5.61;100.00;102510.59;5036153;28;45361;-75
2022/01/15 05:37:16;;;;;;;;;99.25;84.00;;;;;5.57;100.00;102499.13;5035341;28;46626;-76
2022/01/15 05:39:42;;;;;;;;;99.50;88.50;;;;;5.55;100.00;102503.22;5035849;28;45425;-76
2022/01/15 05:42:09;;;;;;;;;94.00;77.75;;;;;5.53;100.00;102497.03;5035926;28;45275;-77
2022/01/15 05:44:34;;;;;;;;;93.00;74.75;;;;;5.48;100.00;102503.41;5036262;28;45292;-77
2022/01/15 05:47:01;;;;;;;;;94.75;84.75;;;;;5.46;100.00;102515.22;5034509;28;45918;-76
2022/01/15 05:49:26;;;;;;;;;97.25;84.00;;;;;5.43;100.00;102510.69;5035534;28;45248;-77
2022/01/15 05:51:52;;;;;;;;;92.75;81.25;;;;;5.41;100.00;102510.53;5035424;28;45465;-77
2022/01/15 05:54:18;;;;;;;;;88.50;74.25;;;;;5.38;100.00;102517.97;5036008;28;45396;-77
2022/01/15 05:56:44;;;;;;;;;95.00;78.75;;;;;5.32;100.00;102512.25;5034710;28;45522;-77
2022/01/15 05:59:10;;;;;;;;;90.50;72.00;;;;;5.26;100.00;102515.16;5035437;28;45368;-76
2022/01/15 06:01:36;;;;;;;;;83.50;67.25;;;;;5.21;100.00;102520.59;5035592;28;45398;-77
2022/01/15 06:04:03;;;;;;;;;90.50;72.00;;;;;5.14;100.00;102521.69;5035732;28;45344;-77
2022/01/15 06:06:28;;;;;;;;;88.75;69.75;;;;;5.13;100.00;102514.75;5034878;28;45364;-77
2022/01/15 06:08:54;;;;;;;;;90.50;73.75;;;;;5.14;100.00;102515.66;5035198;28;45209;-77
2022/01/15 06:11:21;;;;;;;;;89.50;76.00;;;;;5.13;100.00;102516.41;5034791;28;45445;-77
2022/01/15 06:13:48;;;;;;;;;92.75;73.50;;;;;5.13;100.00;102514.75;5026356;28;45502;-77
2022/01/15 06:16:14;;;;;;;;;93.00;76.00;;;;;5.11;100.00;102508.59;5019272;28;45916;-78
2022/01/15 06:18:40;;;;;;;;;94.25;80.50;;;;;5.06;100.00;102513.28;5034004;28;45810;-77
2022/01/15 06:21:06;;;;;;;;;86.50;67.50;;;;;5.04;100.00;102516.44;5034749;28;45500;-76
2022/01/15 06:23:32;;;;;;;;;89.00;71.25;;;;;5.01;100.00;102518.75;5015325;28;45503;-76
2022/01/15 06:25:58;;;;;;;;;91.25;76.00;;;;;5.00;100.00;102509.22;5023310;28;45332;-76
2022/01/15 06:28:23;;;;;;;;;87.75;74.50;;;;;4.95;100.00;102503.66;5019780;28;45339;-76
2022/01/15 06:30:49;;;;;;;;;83.25;66.25;;;;;4.95;100.00;102506.22;5038032;28;45386;-76
2022/01/15 06:33:15;;;;;;;;;85.75;68.00;;;;;4.92;100.00;102500.81;5038781;28;45513;-76
2022/01/15 06:35:41;;;;;;;;;94.50;79.50;;;;;4.92;100.00;102509.38;5037834;28;46104;-75
2022/01/15 06:38:07;;;;;;;;;91.50;72.00;;;;;4.91;100.00;102507.56;5029888;28;45727;-76
2022/01/15 06:40:33;;;;;;;;;91.00;71.50;;;;;4.89;100.00;102498.84;5017803;28;45498;-76
2022/01/15 06:43:00;;;;;;;;;91.50;76.25;;;;;4.89;100.00;102510.75;5020969;28;45288;-77
2022/01/15 06:45:29;;;;;;;;;77.50;60.75;;;;;4.87;100.00;102500.38;5020190;28;45456;-76
2022/01/15 06:47:54;;;;;;;;;90.00;74.75;;;;;4.83;100.00;102505.06;5018060;28;45229;-77
2022/01/15 06:50:22;;;;;;;;;95.25;75.25;;;;;4.84;100.00;102489.78;5018246;28;45454;-76
2022/01/15 06:52:48;;;;;;;;;85.00;65.75;;;;;4.85;100.00;102488.16;5018128;28;45693;-77
2022/01/15 06:55:14;;;;;;;;;90.75;72.75;;;;;4.85;100.00;102498.41;5017999;28;46468;-77
2022/01/15 06:57:40;;;;;;;;;92.50;76.25;;;;;4.84;100.00;102488.91;5000365;28;45366;-77
2022/01/15 07:00:07;;;;;;;;;91.75;74.00;;;;;4.85;100.00;102485.59;5018256;28;45799;-76
2022/01/15 07:02:33;;;;;;;;;86.00;67.75;;;;;4.87;100.00;102479.84;5029217;28;45529;-76
2022/01/15 07:04:59;;;;;;;;;86.00;66.75;;;;;4.90;100.00;102482.69;5028503;28;45441;-76
2022/01/15 07:07:24;;;;;;;;;81.75;65.75;;;;;4.94;100.00;102483.88;5040380;28;45493;-75
2022/01/15 07:09:50;;;;;;;;;92.50;76.00;;;;;4.99;100.00;102476.63;5027018;28;45304;-75
2022/01/15 07:12:15;;;;;;;;;92.00;72.00;;;;;5.00;100.00;102473.28;5028218;28;45557;-77
2022/01/15 07:14:41;;;;;;;;;90.25;68.25;;;;;5.01;100.00;102470.88;5036796;28;46131;-77
2022/01/15 07:17:07;;;;;;;;;91.50;71.75;;;;;5.00;100.00;102469.06;5037239;28;45521;-77
2022/01/15 07:19:33;;;;;;;;;94.50;72.75;;;;;5.03;100.00;102468.44;5036335;28;45450;-77
2022/01/15 07:21:59;;;;;;;;;88.25;73.00;;;;;5.01;100.00;102467.41;5034113;28;45513;-76
2022/01/15 07:24:24;;;;;;;;;84.75;68.25;;;;;5.02;100.00;102470.09;5036286;28;46006;-80
2022/01/15 07:26:50;;;;;;;;;85.75;68.50;;;;;5.03;100.00;102465.84;5035866;28;45347;-78
2022/01/15 07:29:16;;;;;;;;;87.00;65.75;;;;;5.04;100.00;102477.94;5038274;28;45459;-79
2022/01/15 07:31:45;;;;;;;;;85.50;68.75;;;;;5.04;100.00;102470.25;5037899;28;45791;-75
2022/01/15 07:34:11;;;;;;;;;87.00;65.25;;;;;5.04;100.00;102473.72;5038296;28;46648;-79
2022/01/15 07:36:37;;;;;;;;;86.00;66.00;;;;;5.05;100.00;102461.78;5022419;28;45483;-79
2022/01/15 07:39:05;;;;;;;;;90.75;72.75;;;;;5.09;100.00;102457.06;5018412;28;45524;-80
2022/01/15 07:41:31;;;;;;;;;88.75;71.75;;;;;5.13;100.00;102453.13;5037468;28;45563;-80
2022/01/15 07:43:57;;;;;;;;;87.25;68.25;;;;;5.18;100.00;102466.41;5037541;28;46681;-81
2022/01/15 07:46:23;;;;;;;;;94.75;78.25;;;;;5.18;100.00;102466.41;5038362;28;45731;-80
2022/01/15 07:48:49;;;;;;;;;88.50;71.75;;;;;5.18;100.00;102459.59;5041872;28;45653;-81
2022/01/15 07:51:15;;;;;;;;;92.25;72.50;;;;;5.13;100.00;102455.69;5039484;28;45435;-89
2022/01/15 07:53:40;;;;;;;;;84.25;68.00;;;;;5.17;100.00;102465.50;5038726;28;45348;-89
2022/01/15 07:56:06;;;;;;;;;90.50;72.50;;;;;5.17;100.00;102457.78;5037849;28;45376;-85
2022/01/15 07:58:32;;;;;;;;;61.75;42.50;;;;;5.18;100.00;102459.59;5037049;28;45829;-84
2022/01/15 08:00:57;;;;;;;;;85.50;69.25;;;;;5.17;100.00;102462.94;5038073;28;45498;-84
2022/01/15 08:03:23;;;;;;;;;93.50;75.00;;;;;5.15;100.00;102451.63;5037123;28;46095;-83
2022/01/15 08:05:48;;;;;;;;;91.50;75.25;;;;;5.11;100.00;102453.00;5037560;28;45431;-85
2022/01/15 08:08:15;;;;;;;;;91.50;75.75;;;;;5.11;100.00;102455.56;5038385;28;45510;-87
2022/01/15 08:10:42;;;;;;;;;95.75;79.75;;;;;5.14;100.00;102456.63;5024954;28;45411;-94
2022/01/15 08:13:13;;;;;;;;;92.25;75.25;;;;;5.13;100.00;102460.81;5048379;28;45701;-92
2022/01/15 08:15:43;;;;;;;;;93.25;73.00;;;;;5.11;100.00;102445.28;5007976;28;45593;-85
2022/01/15 08:18:09;;;;;;;;;86.50;70.25;;;;;5.16;100.00;102456.00;5021078;28;45447;-87
2022/01/15 08:20:45;;;;;;;;;91.75;76.25;;;;;5.18;100.00;102446.78;5019956;28;45228;-76
2022/01/15 08:23:11;;;;;;;;;96.25;83.25;;;;;5.21;100.00;102451.28;5044114;28;46461;-78
2022/01/15 08:25:37;;;;;;;;;95.25;80.25;;;;;5.21;100.00;102457.34;5040458;28;45277;-79
2022/01/15 08:28:02;;;;;;;;;92.75;77.00;;;;;5.17;100.00;102450.09;5037344;28;45625;-78
2022/01/15 08:30:28;;;;;;;;;92.25;78.50;;;;;5.14;100.00;102444.66;5035891;28;45498;-78
2022/01/15 08:32:54;;;;;;;;;88.25;72.25;;;;;5.12;100.00;102456.47;5035645;28;46221;-77
2022/01/15 08:35:20;;;;;;;;;95.00;77.00;;;;;5.11;100.00;102458.13;5036304;28;45583;-78
2022/01/15 08:37:46;;;;;;;;;94.50;81.25;;;;;5.14;100.00;102462.63;5036570;28;45453;-78
2022/01/15 08:40:14;;;;;;;;;91.50;75.00;;;;;5.11;100.00;102459.81;5037182;28;45541;-78
2022/01/15 08:42:40;;;;;;;;;92.25;77.25;;;;;5.07;100.00;102461.19;5034671;28;45449;-78
2022/01/15 08:45:07;;;;;;;;;93.25;78.25;;;;;5.05;100.00;102464.34;5035572;28;45778;-77
2022/01/15 08:47:33;;;;;;;;;98.50;86.00;;;;;4.96;100.00;102459.28;5035623;28;45508;-78
2022/01/15 08:50:00;;;;;;;;;96.50;82.50;;;;;4.93;100.00;102461.53;5017867;28;45634;-78
2022/01/15 08:52:25;;;;;;;;;98.00;80.25;;;;;4.93;100.00;102469.25;5036546;28;45522;-82
2022/01/15 08:54:51;;;;;;;;;96.00;84.25;;;;;4.93;100.00;102470.13;5018389;28;45516;-82
2022/01/15 08:57:16;;;;;;;;;96.50;83.25;;;;;4.91;100.00;102474.22;5035299;28;45444;-79
2022/01/15 08:59:43;;;;;;;;;97.25;80.75;;;;;4.90;100.00;102480.13;5017578;28;45495;-79
2022/01/15 09:02:10;;;;;;;;;98.50;87.25;;;;;4.88;100.00;102473.03;5034961;28;45358;-78
2022/01/15 09:04:37;;;;;;;;;95.25;78.75;;;;;4.88;100.00;102461.13;5034797;28;45723;-78
2022/01/15 09:07:03;;;;;;;;;99.25;86.25;;;;;4.90;100.00;102464.72;5035356;28;45490;-80
2022/01/15 09:09:29;;;;;;;;;97.75;84.75;;;;;4.91;100.00;102461.38;5035455;28;45362;-78
2022/01/15 09:11:56;;;;;;;;;94.25;76.25;;;;;4.93;100.00;102470.13;5035258;28;45466;-79
2022/01/15 09:14:21;;;;;;;;;96.25;77.75;;;;;4.93;100.00;102470.13;5035414;28;45791;-77
2022/01/15 09:16:47;;;;;;;;;103.50;94.25;;;;;4.93;100.00;102465.00;5017024;28;45332;-77
2022/01/15 09:19:13;;;;;;;;;98.00;89.75;;;;;4.97;100.00;102463.63;5036500;28;45490;-77
2022/01/15 09:21:39;;;;;;;;;99.00;85.50;;;;;4.98;100.00;102465.44;5034716;28;46374;-78
2022/01/15 09:24:05;;;;;;;;;100.00;87.50;;;;;5.00;100.00;102470.72;5035009;28;46199;-78
2022/01/15 09:27:00;;;;;;;;;107.00;86.75;;;;;5.04;100.00;102467.66;5033836;28;45646;-79
2022/01/15 09:32:05;;;;;;;;;99.50;87.25;;;;;5.04;100.00;102467.66;5035399;28;45796;-79
2022/01/15 09:34:34;;;;;;;;;99.50;90.50;;;;;5.08;100.00;102475.81;5019197;28;45348;-78
2022/01/15 09:37:01;;;;;;;;;109.25;98.00;;;;;5.11;100.00;102473.53;5037494;28;45204;-78
2022/01/15 09:39:26;;;;;;;;;99.50;82.00;;;;;5.15;100.00;102473.81;5019242;28;45640;-78
2022/01/15 09:41:54;;;;;;;;;96.50;81.00;;;;;5.18;100.00;102477.59;5034977;28;46094;-78
2022/01/15 09:44:24;;;;;;;;;100.50;87.25;;;;;5.22;100.00;102472.00;5035346;28;45415;-78
2022/01/15 09:46:51;;;;;;;;;104.25;96.50;;;;;5.26;100.00;102463.78;5035176;28;45257;-78
2022/01/15 09:49:23;;;;;;;;;99.25;87.75;;;;;5.31;100.00;102465.88;5036364;28;45565;-78
2022/01/15 09:51:49;;;;;;;;;107.50;96.75;;;;;5.34;100.00;102461.06;5035572;28;45541;-78
2022/01/15 09:54:16;;;;;;;;;101.75;90.00;;;;;5.38;100.00;102455.41;5035240;28;45439;-77
2022/01/15 09:56:42;;;;;;;;;109.25;94.50;;;;;5.41;100.00;102454.03;5015121;28;45233;-78
2022/01/15 09:59:08;;;;;;;;;111.25;97.75;;;;;5.47;100.00;102448.53;5015665;28;45441;-78
2022/01/15 10:01:34;;;;;;;;;102.75;88.50;;;;;5.54;100.00;102455.16;5015068;28;45892;-77
2022/01/15 10:04:00;;;;;;;;;108.50;94.25;;;;;5.59;100.00;102453.94;5018694;28;45399;-79
2022/01/15 10:06:26;;;;;;;;;111.75;97.75;;;;;5.63;100.00;102461.13;5027836;28;45398;-78
2022/01/15 10:09:06;;;;;;;;;108.25;95.25;;;;;5.72;100.00;102456.81;5038365;28;45359;-78
2022/01/15 10:11:52;;;;;;;;;99.25;89.75;;;;;5.81;100.00;102461.91;5038200;28;45476;-77
2022/01/15 10:14:33;;;;;;;;;106.25;98.50;;;;;5.86;100.00;102460.69;5038786;28;45875;-77
2022/01/15 10:17:02;;;;;;;;;111.75;99.25;;;;;5.87;100.00;102452.19;5038567;28;45366;-77
2022/01/15 10:19:36;;;;;;;;;111.75;96.25;;;;;5.96;100.00;102459.81;5038393;28;45512;-78
2022/01/15 10:22:15;;;;;;;;;118.00;103.75;;;;;6.02;100.00;102465.56;5038266;28;45683;-77
2022/01/15 10:24:49;;;;;;;;;117.00;99.00;;;;;6.07;100.00;102460.84;5037759;28;45377;-77
2022/01/15 10:27:34;;;;;;;;;111.50;96.25;;;;;6.12;100.00;102462.13;5038538;28;45260;-77
2022/01/15 10:30:07;;;;;;;;;112.25;95.75;;;;;6.16;100.00;102451.38;5020188;28;45511;-77
2022/01/15 10:32:35;;;;;;;;;105.50;97.50;;;;;6.23;100.00;102450.25;5037912;28;46482;-77
2022/01/15 10:35:15;;;;;;;;;117.00;101.25;;;;;6.28;100.00;102435.22;5037890;28;45630;-76
2022/01/15 10:37:53;;;;;;;;;112.50;103.00;;;;;6.30;100.00;102431.13;5038214;28;45265;-76
2022/01/15 10:40:22;;;;;;;;;127.50;102.25;;;;;6.34;100.00;102435.75;5040296;28;45269;-77
2022/01/15 10:42:59;;;;;;;;;121.00;104.50;;;;;6.37;100.00;102432.56;5038405;28;46364;-77
2022/01/15 10:45:27;;;;;;;;;109.75;100.50;;;;;6.40;100.00;102428.59;5038249;28;45226;-77
2022/01/15 10:47:55;;;;;;;;;113.00;99.50;;;;;6.44;100.00;102419.47;5038056;28;45404;-77
2022/01/15 10:50:26;;;;;;;;;106.75;98.00;;;;;6.47;100.00;102419.75;5038512;28;45527;-78
2022/01/15 10:52:54;;;;;;;;;121.00;108.00;;;;;6.49;100.00;102421.66;5037746;28;45697;-75
2022/01/15 10:55:32;;;;;;;;;121.00;104.75;;;;;6.52;100.00;102409.84;5038205;28;45482;-78
2022/01/15 10:58:04;;;;;;;;;120.00;108.75;;;;;6.53;100.00;102420.25;5038036;28;45360;-78
2022/01/15 11:00:36;;;;;;;;;114.00;100.50;;;;;6.55;100.00;102411.00;5037784;28;45401;-78
2022/01/15 11:03:04;;;;;;;;;123.50;109.75;;;;;6.56;100.00;102417.03;5037609;28;46173;-79
2022/01/15 11:05:34;;;;;;;;;116.50;107.50;;;;;6.61;100.00;102415.78;5019420;28;45384;-78
2022/01/15 11:08:10;;;;;;;;;126.25;115.00;;;;;6.66;100.00;102415.41;5037757;28;45419;-78
2022/01/15 11:11:04;;;;;;;;;121.50;110.25;;;;;6.73;100.00;102411.72;5044656;28;45359;-79
2022/01/15 11:13:32;;;;;;;;;113.50;102.00;;;;;6.78;100.00;102410.41;5047921;28;45434;-79
2022/01/15 11:16:01;;;;;;;;;116.50;102.75;;;;;6.80;100.00;102397.69;5053879;28;44891;-78
2022/01/15 11:18:29;;;;;;;;;114.75;102.25;;;;;6.87;100.00;102401.66;5041536;28;45439;-77
2022/01/15 11:21:02;;;;;;;;;119.00;103.50;;;;;6.89;100.00;102397.56;5020003;28;45600;-77
2022/01/15 11:23:30;;;;;;;;;111.50;102.75;;;;;6.90;100.00;102392.56;5037063;28;45336;-78
2022/01/15 11:25:59;;;;;;;;;113.25;101.00;;;;;6.92;100.00;102392.69;5026578;28;45366;-78
2022/01/15 11:28:27;;;;;;;;;105.75;95.00;;;;;6.97;100.00;102391.38;5026602;28;45480;-80